Time;durP1;ratioP1;P1;durP2;ratioP2;P2;SDS_P1;SDS_P2;PMS_P1;PMS_P2;Temp;Humidity;BMP_temperature;BMP_pressure;BME280_temperature;BME280_humidity;BME280_pressure;Samples;Min_cycle;Max_cycle;Signal;HPM_P1;HPM_P2
2023/04/30 00:02:33;;;;;;;0.40;0.40;;;;;;;-147.53;100.00;57128.34;10118443;29;20049;-79
2023/04/30 00:07:35;;;;;;;1.85;1.02;;;;;;;-147.53;100.00;57128.34;10104574;29;20053;-80
2023/04/30 00:12:37;;;;;;;1.30;0.80;;;;;;;-147.53;100.00;57128.34;10108536;29;20071;-80
2023/04/30 00:17:39;;;;;;;1.80;0.82;;;;;;;-147.53;100.00;57128.34;10109252;29;20245;-80
2023/04/30 00:22:40;;;;;;;0.77;0.57;;;;;;;-147.53;100.00;57128.34;10127638;29;20534;-80
2023/04/30 00:27:42;;;;;;;1.17;0.73;;;;;;;-147.53;100.00;57128.34;10108814;29;20540;-79
2023/04/30 00:32:44;;;;;;;3.92;1.42;;;;;;;-147.53;100.00;57128.34;10093140;29;20056;-80
2023/04/30 00:37:46;;;;;;;1.92;1.20;;;;;;;-147.53;100.00;57128.34;10108891;29;20063;-79
2023/04/30 00:42:48;;;;;;;4.28;0.90;;;;;;;-147.53;100.00;57128.34;10124467;29;20056;-79
2023/04/30 00:47:50;;;;;;;0.65;0.63;;;;;;;-147.53;100.00;57128.34;10130842;29;20052;-81
2023/04/30 00:52:52;;;;;;;0.93;0.50;;;;;;;-147.53;100.00;57128.34;10131559;29;20052;-81
2023/04/30 00:57:54;;;;;;;0.35;0.35;;;;;;;-147.53;100.00;57128.34;10131814;29;20500;-81
2023/04/30 01:02:56;;;;;;;1.65;0.93;;;;;;;-147.53;100.00;57128.34;10130688;29;20065;-80
2023/04/30 01:07:58;;;;;;;1.45;0.60;;;;;;;-147.53;100.00;57128.34;10131381;29;20592;-80
2023/04/30 01:13:53;;;;;;;0.68;0.45;;;;;;;-147.53;100.00;57128.34;10122303;29;20088;-83
2023/04/30 01:19:10;;;;;;;0.85;0.60;;;;;;;-147.53;100.00;57128.34;10086538;29;20295;-80
2023/04/30 01:24:47;;;;;;;0.98;0.50;;;;;;;-147.53;100.00;57128.34;10140568;29;20100;-81
2023/04/30 01:29:50;;;;;;;0.70;0.45;;;;;;;-147.53;100.00;57128.34;10109391;29;20053;-80
2023/04/30 01:34:52;;;;;;;0.68;0.63;;;;;;;-147.53;100.00;57128.34;10111150;29;20053;-81
2023/04/30 01:40:21;;;;;;;0.50;0.50;;;;;;;-147.53;100.00;57128.34;10128186;29;20045;-81
2023/04/30 01:45:45;;;;;;;0.22;0.22;;;;;;;-147.53;100.00;57128.34;10109937;29;20059;-80
2023/04/30 01:50:52;;;;;;;0.40;0.40;;;;;;;-147.53;100.00;57128.34;10124453;29;20137;-80
2023/04/30 01:55:58;;;;;;;;;;;;;;;-147.53;100.00;57128.34;10108792;29;20048;-80
2023/04/30 02:01:00;;;;;;;0.32;0.32;;;;;;;-147.53;100.00;57128.34;10124514;29;19927;-81
2023/04/30 02:06:01;;;;;;;0.22;0.22;;;;;;;-147.53;100.00;57128.34;10106733;29;20059;-80
2023/04/30 02:11:03;;;;;;;0.30;0.30;;;;;;;-147.53;100.00;57128.34;10105444;29;20053;-82
2023/04/30 02:16:05;;;;;;;0.38;0.38;;;;;;;-147.53;100.00;57128.34;10121492;29;20048;-80
2023/04/30 02:21:07;;;;;;;0.60;0.32;;;;;;;-147.53;100.00;57128.34;10098938;29;20087;-80
2023/04/30 02:26:09;;;;;;;0.63;0.57;;;;;;;-147.53;100.00;57128.34;10122965;29;20057;-79
2023/04/30 02:31:10;;;;;;;0.55;0.30;;;;;;;-147.53;100.00;57128.34;10122417;29;20139;-79
2023/04/30 02:36:12;;;;;;;0.28;0.28;;;;;;;-147.53;100.00;57128.34;10104689;29;20063;-82
2023/04/30 02:41:14;;;;;;;2.92;0.57;;;;;;;-147.53;100.00;57128.34;10105198;29;20063;-80
2023/04/30 02:46:17;;;;;;;0.32;0.32;;;;;;;-147.53;100.00;57128.34;10089391;29;20155;-79
2023/04/30 02:51:19;;;;;;;0.47;0.47;;;;;;;-147.53;100.00;57128.34;10089151;29;20053;-80
2023/04/30 02:56:20;;;;;;;0.60;0.50;;;;;;;-147.53;100.00;57128.34;10104968;29;20075;-80
2023/04/30 03:01:22;;;;;;;2.30;1.30;;;;;;;-147.53;100.00;57128.34;10104875;29;20517;-80
2023/04/30 03:06:24;;;;;;;0.32;0.32;;;;;;;-147.53;100.00;57128.34;10104124;29;20135;-80
2023/04/30 03:11:26;;;;;;;0.47;0.47;;;;;;;-147.53;100.00;57128.34;10103996;29;20149;-79
2023/04/30 03:16:29;;;;;;;0.40;0.40;;;;;;;-147.53;100.00;57128.34;10102938;29;20064;-80
2023/04/30 03:21:31;;;;;;;0.30;0.30;;;;;;;-147.53;100.00;57128.34;10104233;29;20117;-80
2023/04/30 03:26:33;;;;;;;0.45;0.38;;;;;;;-147.53;100.00;57128.34;10102895;29;20052;-79
2023/04/30 03:31:34;;;;;;;0.50;0.50;;;;;;;-147.53;100.00;57128.34;10117668;29;20520;-80
2023/04/30 03:36:36;;;;;;;0.30;0.30;;;;;;;-147.53;100.00;57128.34;10114887;29;20072;-79
2023/04/30 03:41:38;;;;;;;0.43;0.40;;;;;;;-147.53;100.00;57128.34;10103306;29;20144;-79
2023/04/30 03:46:41;;;;;;;;;;;;;;;-147.53;100.00;57128.34;10106291;29;20087;-80
2023/04/30 03:51:43;;;;;;;0.13;0.13;;;;;;;-147.53;100.00;57128.34;10100992;29;19975;-80
2023/04/30 03:56:44;;;;;;;0.30;0.30;;;;;;;-147.53;100.00;57128.34;10123842;29;20080;-80
2023/04/30 04:01:46;;;;;;;0.55;0.55;;;;;;;-147.53;100.00;57128.34;10102426;29;20080;-81
2023/04/30 04:06:48;;;;;;;1.00;0.40;;;;;;;-147.53;100.00;57128.34;10101596;29;20116;-79
2023/04/30 04:11:51;;;;;;;0.65;0.45;;;;;;;-147.53;100.00;57128.34;10102312;29;20060;-80
2023/04/30 04:16:53;;;;;;;0.95;0.60;;;;;;;-147.53;100.00;57128.34;10101049;29;20057;-81
2023/04/30 04:21:54;;;;;;;0.80;0.40;;;;;;;-147.53;100.00;57128.34;10102037;29;20060;-79
2023/04/30 04:26:56;;;;;;;0.95;0.60;;;;;;;-147.53;100.00;57128.34;10100922;29;20059;-80
2023/04/30 04:32:03;;;;;;;1.25;1.00;;;;;;;-147.53;100.00;57128.34;10118441;29;20057;-80
2023/04/30 04:37:05;;;;;;;0.50;0.38;;;;;;;-147.53;100.00;57128.34;10100650;29;20155;-79
2023/04/30 04:42:07;;;;;;;0.68;0.60;;;;;;;-147.53;100.00;57128.34;10101210;29;20064;-79
2023/04/30 04:47:09;;;;;;;1.65;0.75;;;;;;;-147.53;100.00;57128.34;10118308;29;20490;-80
2023/04/30 04:52:10;;;;;;;0.63;0.47;;;;;;;-147.53;100.00;57128.34;10086732;29;20147;-79
2023/04/30 04:57:12;;;;;;;0.65;0.30;;;;;;;-147.53;100.00;57128.34;10124853;29;20599;-79
2023/04/30 05:02:14;;;;;;;0.40;0.35;;;;;;;-147.53;100.00;57128.34;10093362;29;20553;-80
2023/04/30 05:07:17;;;;;;;0.73;0.70;;;;;;;-147.53;100.00;57128.34;10093297;29;20059;-79
2023/04/30 05:12:18;;;;;;;0.80;0.40;;;;;;;-147.53;100.00;57128.34;10124704;29;20100;-80
2023/04/30 05:17:20;;;;;;;1.00;0.90;;;;;;;-147.53;100.00;57128.34;10107279;29;20053;-79
2023/04/30 05:22:22;;;;;;;0.52;0.50;;;;;;;-147.53;100.00;57128.34;10059832;29;20598;-79
2023/04/30 05:27:24;;;;;;;0.93;0.55;;;;;;;-147.53;100.00;57128.34;10053629;29;20064;-79
2023/04/30 05:32:26;;;;;;;0.65;0.63;;;;;;;-147.53;100.00;57128.34;10068413;29;20052;-79
2023/04/30 05:37:28;;;;;;;2.38;0.57;;;;;;;-147.53;100.00;57128.34;10066851;29;20098;-79
2023/04/30 05:42:30;;;;;;;0.95;0.55;;;;;;;-147.53;100.00;57128.34;10083498;29;20058;-79
2023/04/30 05:47:32;;;;;;;1.95;1.58;;;;;;;-147.53;100.00;57128.34;10067348;29;20064;-79
2023/04/30 05:52:33;;;;;;;1.02;0.85;;;;;;;-147.53;100.00;57128.34;10098120;29;20487;-79
2023/04/30 05:57:35;;;;;;;0.82;0.60;;;;;;;-147.53;100.00;57128.34;10041253;29;20182;-79
2023/04/30 06:02:37;;;;;;;2.28;1.95;;;;;;;-147.53;100.00;57128.34;10116057;29;20052;-80
2023/04/30 06:07:39;;;;;;;1.98;1.05;;;;;;;-147.53;100.00;57128.34;10110549;29;20048;-80
2023/04/30 06:12:40;;;;;;;5.80;2.35;;;;;;;-147.53;100.00;57128.34;10048364;29;20052;-79
2023/04/30 06:17:45;;;;;;;1.27;1.00;;;;;;;-147.53;100.00;57128.34;10081879;29;20060;-79
2023/04/30 06:22:47;;;;;;;3.33;1.35;;;;;;;-147.53;100.00;57128.34;10100829;29;20056;-80
2023/04/30 06:27:50;;;;;;;1.85;1.27;;;;;;;-147.53;100.00;57128.34;10101921;29;20060;-79
2023/04/30 06:32:52;;;;;;;3.05;1.00;;;;;;;-147.53;100.00;57128.34;10090653;29;20148;-79
2023/04/30 06:37:54;;;;;;;0.60;0.60;;;;;;;-147.53;100.00;57128.34;10105505;29;20063;-79
2023/04/30 06:42:55;;;;;;;1.48;0.90;;;;;;;-147.53;100.00;57128.34;10118173;29;20083;-78
2023/04/30 06:47:58;;;;;;;3.88;1.65;;;;;;;-147.53;100.00;57128.34;10055624;29;20630;-79
2023/04/30 06:53:00;;;;;;;2.60;1.08;;;;;;;-147.53;100.00;57128.34;10068992;29;20061;-78
2023/04/30 06:58:02;;;;;;;;;;;;;;;-147.53;100.00;57128.34;10086939;29;20151;-78
2023/04/30 07:03:03;;;;;;;;;;;;;;;-147.53;100.00;57128.34;10080028;29;20049;-79
2023/04/30 07:08:05;;;;;;;;;;;;;;;-147.53;100.00;57128.34;10109039;29;19963;-79
2023/04/30 07:13:07;;;;;;;2.60;1.20;;;;;;;-147.53;100.00;57128.34;10112721;29;19959;-79
2023/04/30 07:18:09;;;;;;;4.00;1.85;;;;;;;-147.53;100.00;57128.34;10122335;29;20119;-80
2023/04/30 07:23:11;;;;;;;6.70;1.40;;;;;;;-147.53;100.00;57128.34;10088477;29;20836;-80
2023/04/30 07:28:13;;;;;;;7.32;1.40;;;;;;;-147.53;100.00;57128.34;10081374;29;20056;-80
2023/04/30 07:33:15;;;;;;;7.85;1.45;;;;;;;-147.53;100.00;57128.34;10094354;29;20068;-80
2023/04/30 07:38:17;;;;;;;7.78;2.53;;;;;;;-147.53;100.00;57128.34;10106505;29;20585;-81
2023/04/30 07:43:19;;;;;;;7.97;1.50;;;;;;;-147.53;100.00;57128.34;10092746;29;20053;-80
2023/04/30 07:48:22;;;;;;;5.85;1.48;;;;;;;-147.53;100.00;57128.34;10121516;29;20147;-81
2023/04/30 07:53:23;;;;;;;4.10;0.90;;;;;;;-147.53;100.00;57128.34;10105344;29;20049;-81
2023/04/30 07:58:25;;;;;;;2.53;1.05;;;;;;;-147.53;100.00;57128.34;10088623;29;20084;-80
2023/04/30 08:03:27;;;;;;;3.50;1.38;;;;;;;-147.53;100.00;57128.34;10067335;29;20053;-80
2023/04/30 08:08:29;;;;;;;1.55;1.15;;;;;;;-147.53;100.00;57128.34;10097572;29;20052;-80
2023/04/30 08:13:30;;;;;;;2.97;1.10;;;;;;;-147.53;100.00;57128.34;10103360;29;20064;-81
2023/04/30 08:18:32;;;;;;;5.05;0.98;;;;;;;-147.53;100.00;57128.34;10119753;29;20528;-80
2023/04/30 08:23:34;;;;;;;6.10;1.45;;;;;;;-147.53;100.00;57128.34;10106127;29;20067;-80
2023/04/30 08:28:36;;;;;;;1.92;1.00;;;;;;;-147.53;100.00;57128.34;10111232;29;20079;-81
2023/04/30 08:33:39;;;;;;;5.45;1.10;;;;;;;-147.53;100.00;57128.34;10097503;29;20045;-81
2023/04/30 08:38:41;;;;;;;2.13;0.90;;;;;;;-147.53;100.00;57128.34;10116436;29;20052;-81
2023/04/30 08:43:45;;;;;;;7.22;1.65;;;;;;;-147.53;100.00;57128.34;10133224;29;20087;-80
2023/04/30 08:48:47;;;;;;;5.70;1.73;;;;;;;-147.53;100.00;57128.34;10133355;29;20492;-81
2023/04/30 08:53:55;;;;;;;3.45;1.05;;;;;;;-147.53;100.00;57128.34;10109844;29;20063;-78
2023/04/30 08:58:57;;;;;;;4.00;1.08;;;;;;;-147.53;100.00;57128.34;10118400;29;20067;-78
2023/04/30 09:03:58;;;;;;;3.47;1.00;;;;;;;-147.53;100.00;57128.34;10140993;29;20052;-80
2023/04/30 09:09:14;;;;;;;2.10;1.00;;;;;;;-147.53;100.00;57128.34;10128000;29;20067;-78
2023/04/30 09:14:24;;;;;;;2.92;0.82;;;;;;;-147.53;100.00;57128.34;10091607;29;20060;-77
2023/04/30 09:19:30;;;;;;;6.55;1.27;;;;;;;-147.53;100.00;57128.34;10117110;29;20056;-77
2023/04/30 09:24:49;;;;;;;1.85;0.98;;;;;;;-147.53;100.00;57128.34;10122782;29;20052;-78
2023/04/30 09:29:53;;;;;;;3.13;1.00;;;;;;;-147.53;100.00;57128.34;10125056;29;20059;-75
2023/04/30 09:34:56;;;;;;;1.80;0.90;;;;;;;-147.53;100.00;57128.34;10123879;29;20525;-76
2023/04/30 09:39:57;;;;;;;1.33;0.93;;;;;;;-147.53;100.00;57128.34;10122592;29;20127;-76
2023/04/30 09:44:59;;;;;;;7.75;1.27;;;;;;;-147.53;100.00;57128.34;10123085;29;20184;-75
2023/04/30 09:50:00;;;;;;;3.08;0.90;;;;;;;-147.53;100.00;57128.34;10116915;29;20064;-73
2023/04/30 09:55:02;;;;;;;2.10;1.20;;;;;;;-147.53;100.00;57128.34;10123061;29;20044;-75
2023/04/30 10:00:07;;;;;;;2.88;0.95;;;;;;;-147.53;100.00;57128.34;10122553;29;20533;-77
2023/04/30 10:05:10;;;;;;;7.97;1.20;;;;;;;-147.53;100.00;57128.34;10125439;29;20048;-78
2023/04/30 10:10:12;;;;;;;2.08;0.77;;;;;;;-147.53;100.00;57128.34;10140284;29;20740;-79
2023/04/30 10:15:18;;;;;;;1.42;0.65;;;;;;;-147.53;100.00;57128.34;10114911;29;20134;-77
2023/04/30 10:20:22;;;;;;;1.63;0.95;;;;;;;-147.53;100.00;57128.34;10134965;29;20059;-77
2023/04/30 10:25:25;;;;;;;2.40;1.00;;;;;;;-147.53;100.00;57128.34;10133510;29;20276;-78
2023/04/30 10:30:30;;;;;;;5.25;1.95;;;;;;;-147.53;100.00;57128.34;10119942;29;20091;-79
2023/04/30 10:36:02;;;;;;;2.85;1.20;;;;;;;-147.53;100.00;57128.34;10121444;29;20085;-77
2023/04/30 10:41:14;;;;;;;2.47;0.88;;;;;;;-147.53;100.00;57128.34;10114842;29;20052;-78
2023/04/30 10:46:41;;;;;;;2.40;1.17;;;;;;;-147.53;100.00;57128.34;10128054;29;20528;-77
2023/04/30 10:52:36;;;;;;;2.92;0.90;;;;;;;-147.53;100.00;57128.34;10045304;29;20545;-78
2023/04/30 10:58:44;;;;;;;2.42;1.10;;;;;;;-147.53;100.00;57128.34;10024146;29;20059;-77
2023/04/30 11:04:23;;;;;;;2.55;1.00;;;;;;;-147.53;100.00;57128.34;10066828;29;20048;-77
2023/04/30 11:10:07;;;;;;;;;;;;;;;;;;;;;
2023/04/30 11:15:29;;;;;;;3.67;1.00;;;;;;;-147.53;100.00;57128.34;10089103;29;20088;-78
2023/04/30 11:21:20;;;;;;;1.38;0.75;;;;;;;-147.53;100.00;57128.34;10092527;29;20049;-77
2023/04/30 11:26:37;;;;;;;1.52;0.80;;;;;;;-147.53;100.00;57128.34;10061512;29;20057;-77
2023/04/30 11:31:51;;;;;;;2.63;0.70;;;;;;;-147.53;100.00;57128.34;10105339;23;20044;-78
2023/04/30 11:37:47;;;;;;;1.58;1.02;;;;;;;-147.53;100.00;57128.34;10147885;29;20572;-77
2023/04/30 11:43:03;;;;;;;8.00;0.90;;;;;;;-147.53;100.00;57128.34;10037055;29;20487;-77
2023/04/30 11:48:13;;;;;;;0.95;0.60;;;;;;;-147.53;100.00;57128.34;10104177;29;20135;-78
2023/04/30 11:53:15;;;;;;;1.38;0.73;;;;;;;-147.53;100.00;57128.34;10116523;29;20055;-77
2023/04/30 11:58:21;;;;;;;1.65;0.65;;;;;;;-147.53;100.00;57128.34;10122196;29;20560;-78
2023/04/30 12:03:23;;;;;;;1.55;0.90;;;;;;;-147.53;100.00;57128.34;10119952;29;20052;-77
2023/04/30 12:08:30;;;;;;;5.13;0.90;;;;;;;-147.53;100.00;57128.34;10142139;29;20060;-79
2023/04/30 12:13:48;;;;;;;4.63;1.17;;;;;;;-147.53;100.00;57128.34;10124485;29;20064;-77
2023/04/30 12:18:50;;;;;;;1.55;0.93;;;;;;;-147.53;100.00;57128.34;10139995;29;20504;-78
2023/04/30 12:23:53;;;;;;;0.77;0.63;;;;;;;-147.53;100.00;57128.34;10147532;29;20051;-78
2023/04/30 12:28:55;;;;;;;5.05;0.93;;;;;;;-147.53;100.00;57128.34;10117946;29;20290;-77
2023/04/30 12:33:56;;;;;;;1.60;0.70;;;;;;;-147.53;100.00;57128.34;10121043;29;20107;-76
2023/04/30 12:39:02;;;;;;;0.40;0.40;;;;;;;-147.53;100.00;57128.34;10128111;29;20056;-76
2023/04/30 12:44:13;;;;;;;1.80;0.63;;;;;;;-147.53;100.00;57128.34;10133113;29;20051;-75
2023/04/30 12:49:29;;;;;;;2.88;1.05;;;;;;;-147.53;100.00;57128.34;10102273;29;20470;-74
2023/04/30 12:54:34;;;;;;;2.13;0.68;;;;;;;-147.53;100.00;57128.34;10154430;29;20051;-74
2023/04/30 12:59:37;;;;;;;2.05;0.65;;;;;;;-147.53;100.00;57128.34;10102839;29;20056;-74
2023/04/30 13:04:40;;;;;;;2.78;0.73;;;;;;;-147.53;100.00;57128.34;10156308;29;20477;-75
2023/04/30 13:09:41;;;;;;;1.55;0.60;;;;;;;-147.53;100.00;57128.34;10151569;29;20414;-75
2023/04/30 13:14:43;;;;;;;1.67;0.70;;;;;;;-147.53;100.00;57128.34;10138019;29;20048;-75
2023/04/30 13:19:44;;;;;;;1.35;0.63;;;;;;;-147.53;100.00;57128.34;10139707;29;20637;-75
2023/04/30 13:24:46;;;;;;;1.48;0.80;;;;;;;-147.53;100.00;57128.34;10151626;29;20048;-75
2023/04/30 13:29:47;;;;;;;1.33;0.60;;;;;;;-147.53;100.00;57128.34;10132968;29;20053;-75
2023/04/30 13:34:51;;;;;;;5.45;1.13;;;;;;;-147.53;100.00;57128.34;10130589;29;20057;-75
2023/04/30 13:39:53;;;;;;;4.32;0.77;;;;;;;-147.53;100.00;57128.34;10160601;29;20059;-75
2023/04/30 13:44:55;;;;;;;1.65;0.90;;;;;;;-147.53;100.00;57128.34;10138298;29;20048;-74
2023/04/30 13:49:57;;;;;;;1.17;0.60;;;;;;;-147.53;100.00;57128.34;10146372;29;20055;-75
2023/04/30 13:54:59;;;;;;;1.58;0.73;;;;;;;-147.53;100.00;57128.34;10138591;29;20064;-75
2023/04/30 14:00:01;;;;;;;0.98;0.63;;;;;;;-147.53;100.00;57128.34;10112767;29;20063;-76
2023/04/30 14:05:08;;;;;;;1.60;0.70;;;;;;;-147.53;100.00;57128.34;10137297;29;20048;-75
2023/04/30 14:10:10;;;;;;;1.98;0.90;;;;;;;-147.53;100.00;57128.34;10118401;29;20059;-76
2023/04/30 14:15:11;;;;;;;2.35;0.88;;;;;;;-147.53;100.00;57128.34;10119344;29;20417;-74
2023/04/30 14:20:13;;;;;;;2.40;1.05;;;;;;;-147.53;100.00;57128.34;10111685;29;20053;-75
2023/04/30 14:25:16;;;;;;;4.38;0.77;;;;;;;-147.53;100.00;57128.34;10113521;29;20052;-78
2023/04/30 14:30:17;;;;;;;1.55;0.40;;;;;;;-147.53;100.00;57128.34;10123647;29;20120;-75
2023/04/30 14:35:19;;;;;;;0.47;0.43;;;;;;;-147.53;100.00;57128.34;10138677;29;20052;-76
2023/04/30 14:40:20;;;;;;;2.78;1.00;;;;;;;-147.53;100.00;57128.34;10139509;29;20051;-75
2023/04/30 14:45:22;;;;;;;2.47;1.02;;;;;;;-147.53;100.00;57128.34;10107903;29;20057;-74
2023/04/30 14:50:24;;;;;;;1.95;0.90;;;;;;;-147.53;100.00;57128.34;10134274;29;20052;-75
2023/04/30 14:55:25;;;;;;;4.68;0.90;;;;;;;-147.53;100.00;57128.34;10141947;29;20051;-75
2023/04/30 15:00:28;;;;;;;3.75;0.75;;;;;;;-147.53;100.00;57128.34;10135873;29;20501;-75
2023/04/30 15:05:29;;;;;;;2.08;1.00;;;;;;;-147.53;100.00;57128.34;10135253;29;20044;-74
2023/04/30 15:10:31;;;;;;;2.10;0.75;;;;;;;-147.53;100.00;57128.34;10135656;29;20819;-75
2023/04/30 15:15:33;;;;;;;1.77;0.70;;;;;;;-147.53;100.00;57128.34;10126146;29;20331;-75
2023/04/30 15:20:34;;;;;;;3.90;1.02;;;;;;;-147.53;100.00;57128.34;10126214;29;20127;-75
2023/04/30 15:25:36;;;;;;;2.15;0.90;;;;;;;-147.53;100.00;57128.34;10121267;29;20071;-76
2023/04/30 15:30:38;;;;;;;0.68;0.68;;;;;;;-147.53;100.00;57128.34;10136090;29;20062;-76
2023/04/30 15:35:40;;;;;;;0.80;0.47;;;;;;;-147.53;100.00;57128.34;10126106;29;20055;-75
2023/04/30 15:40:41;;;;;;;1.95;0.50;;;;;;;-147.53;100.00;57128.34;10149284;29;20062;-74
2023/04/30 15:45:44;;;;;;;2.97;0.82;;;;;;;-147.53;100.00;57128.34;10117739;29;20464;-77
2023/04/30 15:50:47;;;;;;;6.25;0.90;;;;;;;-147.53;100.00;57128.34;10131046;29;20079;-77
2023/04/30 15:55:49;;;;;;;2.13;0.70;;;;;;;-147.53;100.00;57128.34;10134474;29;20052;-77
2023/04/30 16:00:51;;;;;;;1.10;0.70;;;;;;;-147.53;100.00;57128.34;10116281;29;20063;-77
2023/04/30 16:05:53;;;;;;;3.10;0.80;;;;;;;-147.53;100.00;57128.34;10119047;29;20522;-77
2023/04/30 16:10:55;;;;;;;2.90;1.33;;;;;;;-147.53;100.00;57128.34;10143488;29;20057;-77
2023/04/30 16:15:57;;;;;;;0.50;0.50;;;;;;;-147.53;100.00;57128.34;10129761;29;20425;-77
2023/04/30 16:20:59;;;;;;;0.35;0.30;;;;;;;-147.53;100.00;57128.34;10107754;29;20052;-77
2023/04/30 16:26:01;;;;;;;3.10;0.68;;;;;;;-147.53;100.00;57128.34;10107105;29;20049;-77
2023/04/30 16:31:03;;;;;;;1.40;0.60;;;;;;;-147.53;100.00;57128.34;10125883;29;20557;-78
2023/04/30 16:36:05;;;;;;;1.15;0.50;;;;;;;-147.53;100.00;57128.34;10128681;29;20244;-77
2023/04/30 16:41:07;;;;;;;3.72;0.70;;;;;;;-147.53;100.00;57128.34;10110215;29;20155;-77
2023/04/30 16:46:09;;;;;;;2.72;0.55;;;;;;;-147.53;100.00;57128.34;10136542;29;20086;-77
2023/04/30 16:51:12;;;;;;;3.83;0.50;;;;;;;-147.53;100.00;57128.34;10113913;29;20067;-77
2023/04/30 16:56:14;;;;;;;1.25;0.70;;;;;;;-147.53;100.00;57128.34;10125907;29;20056;-77
2023/04/30 17:01:15;;;;;;;0.47;0.47;;;;;;;-147.53;100.00;57128.34;10129831;29;20506;-79
2023/04/30 17:06:17;;;;;;;2.20;0.68;;;;;;;-147.53;100.00;57128.34;10151759;29;20040;-78
2023/04/30 17:11:22;;;;;;;6.65;0.90;;;;;;;-147.53;100.00;57128.34;10157905;29;20099;-78
2023/04/30 17:16:24;;;;;;;2.40;0.80;;;;;;;-147.53;100.00;57128.34;10157111;29;20134;-78
2023/04/30 17:21:28;;;;;;;1.73;0.68;;;;;;;-147.53;100.00;57128.34;10110836;29;20327;-77
2023/04/30 17:26:31;;;;;;;1.08;0.60;;;;;;;-147.53;100.00;57128.34;10119567;29;20044;-78
2023/04/30 17:31:32;;;;;;;1.92;0.80;;;;;;;-147.53;100.00;57128.34;10140229;29;20052;-77
2023/04/30 17:36:35;;;;;;;1.08;0.70;;;;;;;-147.53;100.00;57128.34;10154809;29;20044;-77
2023/04/30 17:41:37;;;;;;;3.00;0.80;;;;;;;-147.53;100.00;57128.34;10119451;29;20136;-77
2023/04/30 17:46:39;;;;;;;2.17;1.00;;;;;;;-147.53;100.00;57128.34;10113802;29;20108;-78
2023/04/30 17:51:40;;;;;;;1.48;0.90;;;;;;;-147.53;100.00;57128.34;10098319;29;20293;-78
2023/04/30 17:56:42;;;;;;;2.25;0.75;;;;;;;-147.53;100.00;57128.34;10115354;29;20051;-78
2023/04/30 18:01:44;;;;;;;1.40;0.52;;;;;;;-147.53;100.00;57128.34;10128126;29;20060;-78
2023/04/30 18:06:46;;;;;;;3.17;0.80;;;;;;;-147.53;100.00;57128.34;10102571;29;20063;-77
2023/04/30 18:11:48;;;;;;;1.85;0.90;;;;;;;-147.53;100.00;57128.34;10126462;29;20060;-77
2023/04/30 18:16:50;;;;;;;2.17;0.95;;;;;;;-147.53;100.00;57128.34;10128207;29;20719;-78
2023/04/30 18:21:54;;;;;;;1.02;0.82;;;;;;;-147.53;100.00;57128.34;10114464;29;20064;-77
2023/04/30 18:26:56;;;;;;;2.63;1.10;;;;;;;-147.53;100.00;57128.34;10098158;29;20048;-78
2023/04/30 18:31:58;;;;;;;2.55;0.82;;;;;;;-147.53;100.00;57128.34;10133466;29;20099;-78
2023/04/30 18:36:59;;;;;;;5.72;0.80;;;;;;;-147.53;100.00;57128.34;10128819;29;20063;-78
2023/04/30 18:42:02;;;;;;;1.20;0.77;;;;;;;-147.53;100.00;57128.34;10105724;29;20067;-78
2023/04/30 18:47:05;;;;;;;1.98;0.90;;;;;;;-147.53;100.00;57128.34;10128188;29;20059;-78
2023/04/30 18:52:08;;;;;;;2.50;0.68;;;;;;;-147.53;100.00;57128.34;10107235;29;20080;-78
2023/04/30 18:57:13;;;;;;;1.25;0.82;;;;;;;-147.53;100.00;57128.34;10109477;29;20195;-77
2023/04/30 19:02:15;;;;;;;2.40;0.88;;;;;;;-147.53;100.00;57128.34;10117120;29;20108;-78
2023/04/30 19:07:17;;;;;;;2.13;0.93;;;;;;;-147.53;100.00;57128.34;10133053;29;20049;-78
2023/04/30 19:12:19;;;;;;;0.50;0.50;;;;;;;-147.53;100.00;57128.34;10124714;29;20443;-78
2023/04/30 19:17:20;;;;;;;1.33;0.57;;;;;;;-147.53;100.00;57128.34;10126905;29;20068;-78
2023/04/30 19:22:22;;;;;;;2.17;0.82;;;;;;;-147.53;100.00;57128.34;10120348;29;20198;-78
2023/04/30 19:27:24;;;;;;;5.63;0.95;;;;;;;-147.53;100.00;57128.34;10114174;29;20115;-78
2023/04/30 19:32:26;;;;;;;0.90;0.60;;;;;;;-147.53;100.00;57128.34;10133036;29;20584;-77
2023/04/30 19:37:29;;;;;;;2.83;0.70;;;;;;;-147.53;100.00;57128.34;10134485;29;20067;-78
2023/04/30 19:42:31;;;;;;;1.80;0.65;;;;;;;-147.53;100.00;57128.34;10119334;29;20072;-78
2023/04/30 19:47:33;;;;;;;2.65;1.08;;;;;;;-147.53;100.00;57128.34;10123038;29;20131;-78
2023/04/30 19:52:35;;;;;;;1.20;0.60;;;;;;;-147.53;100.00;57128.34;10111798;29;20125;-78
2023/04/30 19:57:37;;;;;;;0.40;0.40;;;;;;;-147.53;100.00;57128.34;10132130;29;20144;-77
2023/04/30 20:02:39;;;;;;;0.52;0.52;;;;;;;-147.53;100.00;57128.34;10122202;29;20048;-78
2023/04/30 20:07:41;;;;;;;2.53;0.55;;;;;;;-147.53;100.00;57128.34;10131126;29;20048;-77
2023/04/30 20:12:43;;;;;;;1.08;0.57;;;;;;;-147.53;100.00;57128.34;10144804;29;20044;-77
2023/04/30 20:17:44;;;;;;;1.70;1.02;;;;;;;-147.53;100.00;57128.34;10140320;29;20611;-77
2023/04/30 20:22:50;;;;;;;1.13;0.60;;;;;;;-147.53;100.00;57128.34;10133886;29;20470;-77
2023/04/30 20:27:51;;;;;;;0.50;0.50;;;;;;;-147.53;100.00;57128.34;10138269;29;20080;-77
2023/04/30 20:32:53;;;;;;;1.42;0.80;;;;;;;-147.53;100.00;57128.34;10139988;29;20052;-78
2023/04/30 20:37:55;;;;;;;4.25;1.38;;;;;;;-147.53;100.00;57128.34;10132068;29;20068;-78
2023/04/30 20:42:57;;;;;;;2.58;1.08;;;;;;;-147.53;100.00;57128.34;10124878;29;20057;-78
2023/04/30 20:47:59;;;;;;;3.30;1.05;;;;;;;-147.53;100.00;57128.34;10147512;29;20148;-78
2023/04/30 20:53:01;;;;;;;5.35;1.35;;;;;;;-147.53;100.00;57128.34;10115655;29;20056;-78
2023/04/30 20:58:03;;;;;;;3.20;0.98;;;;;;;-147.53;100.00;57128.34;10125351;29;20052;-77
2023/04/30 21:03:05;;;;;;;2.70;1.15;;;;;;;-147.53;100.00;57128.34;10154906;29;20052;-78
2023/04/30 21:08:07;;;;;;;1.30;0.80;;;;;;;-147.53;100.00;57128.34;10139224;29;20080;-77
2023/04/30 21:13:11;;;;;;;3.15;1.13;;;;;;;-147.53;100.00;57128.34;10140687;29;20534;-78
2023/04/30 21:18:13;;;;;;;2.20;0.80;;;;;;;-147.53;100.00;57128.34;10149932;29;20132;-78
2023/04/30 21:23:15;;;;;;;2.40;1.10;;;;;;;-147.53;100.00;57128.34;10138081;29;20486;-78
2023/04/30 21:28:17;;;;;;;2.03;1.02;;;;;;;-147.53;100.00;57128.34;10129289;29;20050;-78
2023/04/30 21:33:19;;;;;;;2.40;1.17;;;;;;;-147.53;100.00;57128.34;10141005;29;20066;-78
2023/04/30 21:38:21;;;;;;;4.00;1.20;;;;;;;-147.53;100.00;57128.34;10119111;29;20044;-78
2023/04/30 21:43:22;;;;;;;2.35;1.27;;;;;;;-147.53;100.00;57128.34;10140614;29;20520;-78
2023/04/30 21:48:25;;;;;;;3.40;1.38;;;;;;;-147.53;100.00;57128.34;10101818;29;20159;-78
2023/04/30 21:53:27;;;;;;;1.50;0.90;;;;;;;-147.53;100.00;57128.34;10146823;29;20052;-78
2023/04/30 21:58:29;;;;;;;2.75;1.17;;;;;;;-147.53;100.00;57128.34;10126232;29;20488;-78
2023/04/30 22:03:31;;;;;;;2.40;1.17;;;;;;;-147.53;100.00;57128.34;10125530;29;20048;-78
2023/04/30 22:08:33;;;;;;;3.88;1.40;;;;;;;-147.53;100.00;57128.34;10138429;29;20112;-78
2023/04/30 22:13:35;;;;;;;4.05;0.93;;;;;;;-147.53;100.00;57128.34;10133607;29;20132;-78
2023/04/30 22:18:37;;;;;;;2.25;1.00;;;;;;;-147.53;100.00;57128.34;10138835;29;20522;-77
2023/04/30 22:23:39;;;;;;;3.78;1.20;;;;;;;-147.53;100.00;57128.34;10123196;29;20230;-78
2023/04/30 22:28:41;;;;;;;1.83;0.93;;;;;;;-147.53;100.00;57128.34;10149500;29;20683;-78
2023/04/30 22:33:44;;;;;;;2.50;1.23;;;;;;;-147.53;100.00;57128.34;10144434;29;20048;-79
2023/04/30 22:38:46;;;;;;;3.80;1.55;;;;;;;-147.53;100.00;57128.34;10145084;29;20068;-77
2023/04/30 22:43:48;;;;;;;2.47;1.15;;;;;;;-147.53;100.00;57128.34;10146220;29;20131;-78
2023/04/30 22:48:51;;;;;;;2.08;1.15;;;;;;;-147.53;100.00;57128.34;10152489;29;20069;-78
2023/04/30 22:53:55;;;;;;;2.45;0.95;;;;;;;-147.53;100.00;57128.34;10154074;29;20059;-78